createdAt,value
2023-04-04T00:03:05.696Z,100935.89
2023-04-04T00:06:28.055Z,100941.02
2023-04-04T00:09:52.899Z,100936.38
2023-04-04T00:13:37.508Z,100934.36
2023-04-04T00:17:15.208Z,100933.40
2023-04-04T00:20:40.130Z,100927.93
2023-04-04T00:24:04.884Z,100924.16
2023-04-04T00:27:28.170Z,100921.27
2023-04-04T00:30:51.043Z,100918.70
2023-04-04T00:34:20.139Z,100923.96
2023-04-04T00:37:46.396Z,100919.45
2023-04-04T00:41:11.532Z,100920.36
2023-04-04T00:44:56.178Z,100921.77
2023-04-04T00:48:23.366Z,100918.88
2023-04-04T00:51:45.050Z,100908.17
2023-04-04T00:55:18.430Z,100905.93
2023-04-04T00:59:27.753Z,100899.86
2023-04-04T01:03:00.734Z,100894.82
2023-04-04T01:07:00.933Z,100891.54
2023-04-04T01:10:43.178Z,100880.45
2023-04-04T01:14:05.623Z,100878.06
2023-04-04T01:21:27.575Z,100868.09
2023-04-04T01:25:03.125Z,100865.13
2023-04-04T01:28:33.607Z,100861.20
2023-04-04T01:32:31.143Z,100859.34
2023-04-04T01:36:29.508Z,100864.77
2023-04-04T01:43:59.071Z,100857.76
2023-04-04T01:47:24.363Z,100853.14
2023-04-04T01:50:55.285Z,100858.77
2023-04-04T01:54:38.030Z,100858.45
2023-04-04T01:58:05.074Z,100855.06
2023-04-04T02:01:26.936Z,100854.97
2023-04-04T02:04:53.932Z,100857.80
2023-04-04T02:08:24.887Z,100854.39
2023-04-04T02:16:12.734Z,100857.30
2023-04-04T02:19:35.328Z,100860.48
2023-04-04T02:23:06.470Z,100862.29
2023-04-04T02:26:28.243Z,100855.08
2023-04-04T02:30:01.000Z,100857.42
2023-04-04T02:33:37.352Z,100857.67
2023-04-04T02:37:06.829Z,100858.94
2023-04-04T02:40:32.810Z,100854.14
2023-04-04T02:44:19.099Z,100856.25
2023-04-04T02:47:51.928Z,100856.14
2023-04-04T02:51:21.772Z,100860.73
2023-04-04T02:54:48.686Z,100861.68
2023-04-04T02:58:33.246Z,100863.67
2023-04-04T03:01:59.325Z,100863.40
2023-04-04T03:05:36.606Z,100867.11
2023-04-04T03:09:00.488Z,100868.77
2023-04-04T03:12:32.337Z,100868.35
2023-04-04T03:16:18.309Z,100865.14
2023-04-04T03:19:52.329Z,100867.29
2023-04-04T03:23:14.187Z,100864.94
2023-04-04T03:26:52.231Z,100864.89
2023-04-04T03:34:10.939Z,100859.34
2023-04-04T03:37:38.278Z,100856.88
2023-04-04T03:41:16.212Z,100855.41
2023-04-04T03:44:50.217Z,100854.11
2023-04-04T03:48:50.603Z,100855.93
2023-04-04T03:52:12.358Z,100852.37
2023-04-04T03:55:47.972Z,100852.65
2023-04-04T03:59:15.125Z,100854.30
2023-04-04T04:02:41.744Z,100856.52
2023-04-04T04:06:26.609Z,100852.11
2023-04-04T04:10:00.572Z,100859.86
2023-04-04T04:13:29.670Z,100864.67
2023-04-04T04:17:02.484Z,100863.82
2023-04-04T04:20:25.416Z,100866.01
2023-04-04T04:23:52.416Z,100864.08
2023-04-04T04:27:24.238Z,100860.98
2023-04-04T04:30:50.580Z,100859.08
2023-04-04T04:34:28.435Z,100854.80
2023-04-04T04:37:55.227Z,100855.00
2023-04-04T04:41:23.435Z,100849.70
2023-04-04T04:45:03.349Z,100848.03
2023-04-04T04:48:28.040Z,100847.05
2023-04-04T04:51:54.160Z,100846.45
2023-04-04T04:55:18.279Z,100849.89
2023-04-04T04:58:45.605Z,100851.56
2023-04-04T05:02:14.980Z,100854.81
2023-04-04T05:05:45.016Z,100850.57
2023-04-04T05:09:20.657Z,100848.13
2023-04-04T05:12:46.738Z,100849.23
2023-04-04T05:16:13.220Z,100849.16
2023-04-04T05:19:37.288Z,100843.86
2023-04-04T05:23:02.008Z,100847.55
2023-04-04T05:26:29.721Z,100842.63
2023-04-04T05:30:04.779Z,100842.93
2023-04-04T05:33:46.863Z,100844.95
2023-04-04T05:37:27.112Z,100849.70
2023-04-04T05:40:56.357Z,100851.85
2023-04-04T05:44:21.508Z,100847.88
2023-04-04T05:47:44.008Z,100854.32
2023-04-04T05:51:06.499Z,100857.81
2023-04-04T05:54:34.673Z,100850.56
2023-04-04T05:58:02.997Z,100853.22
2023-04-04T06:01:36.880Z,100853.30
2023-04-04T06:05:08.928Z,100851.02
2023-04-04T06:08:40.155Z,100847.34
2023-04-04T06:12:12.186Z,100850.61
2023-04-04T06:15:34.401Z,100845.88
2023-04-04T06:18:59.343Z,100844.91
2023-04-04T06:22:25.198Z,100844.12
2023-04-04T06:25:53.537Z,100842.09
2023-04-04T06:29:15.833Z,100842.48
2023-04-04T06:32:45.492Z,100837.48
2023-04-04T06:36:13.904Z,100834.23
2023-04-04T06:39:35.985Z,100833.92
2023-04-04T06:43:05.180Z,100831.50
2023-04-04T06:46:33.516Z,100830.21
2023-04-04T06:49:55.248Z,100828.09
2023-04-04T06:53:21.296Z,100828.25
2023-04-04T06:56:43.392Z,100824.88
2023-04-04T07:00:07.939Z,100822.25
2023-04-04T07:03:37.559Z,100823.15
2023-04-04T07:07:00.945Z,100818.69
2023-04-04T07:10:31.848Z,100824.58
2023-04-04T07:13:53.514Z,100825.68
2023-04-04T07:17:25.606Z,100825.09
2023-04-04T07:20:49.879Z,100826.36
2023-04-04T07:24:11.577Z,100832.84
2023-04-04T07:27:33.171Z,100842.66
2023-04-04T07:30:54.761Z,100843.24
2023-04-04T07:34:23.900Z,100843.95
2023-04-04T07:38:01.572Z,100840.29
2023-04-04T07:41:32.456Z,100835.02
2023-04-04T07:45:23.575Z,100834.71
2023-04-04T07:52:52.463Z,100831.09
2023-04-04T07:56:14.082Z,100825.39
2023-04-04T07:59:43.285Z,100827.84
2023-04-04T08:03:13.965Z,100822.73
2023-04-04T08:06:46.681Z,100813.38
2023-04-04T08:10:17.936Z,100806.72
2023-04-04T08:13:40.546Z,100803.75
2023-04-04T08:17:04.895Z,100804.07
2023-04-04T08:20:28.505Z,100801.71
2023-04-04T08:23:50.091Z,100803.78
2023-04-04T08:27:23.976Z,100803.13
2023-04-04T08:30:45.675Z,100807.41
2023-04-04T08:34:11.248Z,100805.20
2023-04-04T08:37:34.030Z,100804.79
2023-04-04T08:40:57.237Z,100796.70
2023-04-04T08:44:24.964Z,100797.54
2023-04-04T08:48:04.701Z,100796.65
2023-04-04T08:51:38.027Z,100794.29
2023-04-04T08:55:04.023Z,100792.46
2023-04-04T08:58:31.868Z,100797.49
2023-04-04T09:02:20.282Z,100793.86
2023-04-04T09:05:44.738Z,100792.99
2023-04-04T09:09:12.973Z,100785.72
2023-04-04T09:12:43.232Z,100783.05
2023-04-04T09:16:05.156Z,100782.70
2023-04-04T09:19:30.992Z,100788.09
2023-04-04T09:22:52.715Z,100786.23
2023-04-04T09:26:17.320Z,100780.91
2023-04-04T09:29:39.978Z,100777.70
2023-04-04T09:33:04.534Z,100776.41
2023-04-04T09:36:42.243Z,100777.80
2023-04-04T09:40:04.772Z,100783.25
2023-04-04T09:43:29.447Z,100781.82
2023-04-04T09:47:03.146Z,100778.72
2023-04-04T09:50:30.425Z,100771.45
2023-04-04T09:54:02.608Z,100768.79
2023-04-04T09:57:36.428Z,100774.83
2023-04-04T10:01:07.788Z,100772.73
2023-04-04T10:04:33.030Z,100766.23
2023-04-04T10:07:56.819Z,100768.37
2023-04-04T10:11:44.415Z,100770.20
2023-04-04T10:15:09.828Z,100764.89
2023-04-04T10:18:39.479Z,100772.33
2023-04-04T10:22:02.589Z,100771.10
2023-04-04T10:25:25.202Z,100765.34
2023-04-04T10:28:47.690Z,100763.03
2023-04-04T10:32:10.802Z,100763.95
2023-04-04T10:35:37.247Z,100761.39
2023-04-04T10:39:13.106Z,100761.86
2023-04-04T10:42:44.195Z,100758.12
2023-04-04T10:46:21.042Z,100756.06
2023-04-04T10:49:45.294Z,100753.79
2023-04-04T10:53:07.677Z,100752.14
2023-04-04T10:56:29.895Z,100752.09
2023-04-04T11:00:24.643Z,100754.98
2023-04-04T11:04:23.009Z,100750.15
2023-04-04T11:08:00.689Z,100749.89
2023-04-04T11:11:37.951Z,100752.09
2023-04-04T11:15:10.716Z,100747.15
2023-04-04T11:18:37.121Z,100745.10
2023-04-04T11:21:59.140Z,100744.39
2023-04-04T11:25:32.355Z,100742.97
2023-04-04T11:29:21.439Z,100739.23
2023-04-04T11:32:59.929Z,100741.29
2023-04-04T11:36:48.669Z,100740.41
2023-04-04T11:40:21.091Z,100747.34
2023-04-04T11:43:49.148Z,100744.61
2023-04-04T11:47:24.281Z,100744.84
2023-04-04T11:50:50.405Z,100746.13
2023-04-04T11:54:17.828Z,100738.56
2023-04-04T11:57:49.387Z,100744.39
2023-04-04T12:01:11.538Z,100740.38
2023-04-04T12:04:37.177Z,100733.75
2023-04-04T12:08:02.149Z,100734.33
2023-04-04T12:11:30.856Z,100725.16
2023-04-04T12:14:58.082Z,100730.48
2023-04-04T12:18:34.616Z,100733.48
2023-04-04T12:21:58.306Z,100737.55
2023-04-04T12:25:22.525Z,100734.98
2023-04-04T12:28:45.631Z,100738.16
2023-04-04T12:32:09.955Z,100740.27
2023-04-04T12:35:32.292Z,100739.96
2023-04-04T12:43:03.677Z,100729.02
2023-04-04T12:46:41.753Z,100725.39
2023-04-04T12:50:09.414Z,100728.23
2023-04-04T12:53:35.260Z,100724.42
2023-04-04T12:57:01.529Z,100717.50
2023-04-04T13:00:25.056Z,100720.02
2023-04-04T13:03:47.454Z,100715.81
2023-04-04T13:07:23.851Z,100709.98
2023-04-04T13:11:09.863Z,100710.25
2023-04-04T13:15:13.733Z,100710.46
2023-04-04T13:18:45.860Z,100712.89
2023-04-04T13:22:13.993Z,100712.95
2023-04-04T13:25:39.698Z,100714.35
2023-04-04T13:29:01.778Z,100710.54
2023-04-04T13:32:25.727Z,100711.38
2023-04-04T13:35:51.421Z,100705.39
2023-04-04T13:39:13.100Z,100705.38
2023-04-04T13:42:35.465Z,100702.07
2023-04-04T13:45:57.362Z,100700.47
2023-04-04T13:49:22.269Z,100699.73
2023-04-04T13:52:44.059Z,100700.75
2023-04-04T13:59:31.681Z,100695.77
2023-04-04T14:02:55.846Z,100691.27
2023-04-04T14:06:25.905Z,100691.73
2023-04-04T14:09:48.289Z,100693.58
2023-04-04T14:13:19.944Z,100694.10
2023-04-04T14:16:41.868Z,100696.54
2023-04-04T14:20:04.345Z,100697.52
2023-04-04T14:23:27.551Z,100692.04
2023-04-04T14:26:49.143Z,100693.04
2023-04-04T14:30:11.750Z,100694.02
2023-04-04T14:33:33.538Z,100694.64
2023-04-04T14:36:55.114Z,100692.84
2023-04-04T14:40:28.317Z,100684.61
2023-04-04T14:43:55.273Z,100683.41
2023-04-04T14:47:27.076Z,100677.56
2023-04-04T14:50:48.740Z,100675.98
2023-04-04T14:54:10.768Z,100678.14
2023-04-04T14:57:39.269Z,100678.90
2023-04-04T15:01:05.984Z,100677.57
2023-04-04T15:04:27.909Z,100674.67
2023-04-04T15:07:49.916Z,100676.81
2023-04-04T15:11:13.366Z,100675.96
2023-04-04T15:14:35.002Z,100674.18
2023-04-04T15:18:00.995Z,100672.79
2023-04-04T15:21:28.413Z,100671.40
2023-04-04T15:24:50.290Z,100671.91
2023-04-04T15:28:14.928Z,100667.21
2023-04-04T15:31:36.585Z,100666.17
2023-04-04T15:34:58.651Z,100666.35
2023-04-04T15:38:22.213Z,100663.39
2023-04-04T15:41:44.782Z,100665.14
2023-04-04T15:45:08.253Z,100666.04
2023-04-04T15:48:29.989Z,100671.90
2023-04-04T15:51:55.274Z,100670.08
2023-04-04T15:55:21.942Z,100667.75
2023-04-04T15:58:43.894Z,100667.98
2023-04-04T16:02:07.177Z,100668.73
2023-04-04T16:05:37.307Z,100666.48
2023-04-04T16:09:02.178Z,100666.33
2023-04-04T16:12:23.783Z,100667.92
2023-04-04T16:15:47.071Z,100663.05
2023-04-04T16:29:05.993Z,100671.95
2023-04-04T16:37:01.415Z,100666.82
2023-04-04T16:45:11.062Z,100672.27
2023-04-04T16:49:01.813Z,100670.62
2023-04-04T16:56:09.097Z,100662.91
2023-04-04T16:59:30.805Z,100658.41
2023-04-04T17:02:53.452Z,100663.32
2023-04-04T17:06:20.289Z,100668.08
2023-04-04T17:09:51.797Z,100668.63
2023-04-04T17:13:14.207Z,100673.09
2023-04-04T17:16:37.194Z,100673.98
2023-04-04T17:20:01.553Z,100674.48
2023-04-04T17:23:23.246Z,100671.60
2023-04-04T17:26:48.078Z,100671.99
2023-04-04T17:30:15.797Z,100671.63
2023-04-04T17:33:49.266Z,100676.33
2023-04-04T17:37:11.639Z,100678.52
2023-04-04T17:40:37.561Z,100680.91
2023-04-04T17:43:59.192Z,100680.65
2023-04-04T17:47:24.238Z,100686.50
2023-04-04T17:50:50.590Z,100685.38
2023-04-04T17:54:19.051Z,100687.57
2023-04-04T17:57:45.268Z,100688.02
2023-04-04T18:01:13.532Z,100692.11
2023-04-04T18:04:41.103Z,100692.91
2023-04-04T18:08:34.388Z,100699.42
2023-04-04T18:12:03.551Z,100701.75
2023-04-04T18:15:26.314Z,100701.82
2023-04-04T18:18:50.986Z,100703.31
2023-04-04T18:22:16.119Z,100701.84
2023-04-04T18:25:40.241Z,100705.41
2023-04-04T18:29:07.381Z,100707.45
2023-04-04T18:32:35.341Z,100704.96
2023-04-04T18:36:04.070Z,100707.34
2023-04-04T18:39:26.255Z,100705.73
2023-04-04T18:42:51.779Z,100703.94
2023-04-04T18:46:19.003Z,100705.13
2023-04-04T18:49:42.623Z,100703.30
2023-04-04T18:53:11.452Z,100709.17
2023-04-04T18:56:33.129Z,100713.48
2023-04-04T19:00:00.119Z,100712.54
2023-04-04T19:03:25.320Z,100712.66
2023-04-04T19:06:58.428Z,100714.67
2023-04-04T19:10:20.162Z,100709.20
2023-04-04T19:13:42.294Z,100707.57
2023-04-04T19:17:03.962Z,100708.70
2023-04-04T19:20:29.116Z,100706.92
2023-04-04T19:23:53.173Z,100704.41
2023-04-04T19:27:29.222Z,100704.16
2023-04-04T19:30:59.930Z,100700.56
2023-04-04T19:34:22.132Z,100703.10
2023-04-04T19:37:46.442Z,100702.30
2023-04-04T19:41:18.110Z,100701.69
2023-04-04T19:44:42.787Z,100699.65
2023-04-04T19:48:13.209Z,100697.96
2023-04-04T19:51:41.942Z,100699.77
2023-04-04T19:55:13.000Z,100702.23
2023-04-04T19:58:35.617Z,100703.88
2023-04-04T20:02:07.070Z,100698.91
2023-04-04T20:05:33.813Z,100705.06
2023-04-04T20:09:07.951Z,100703.73
2023-04-04T20:12:33.724Z,100704.14
2023-04-04T20:15:59.838Z,100705.92
2023-04-04T20:19:28.374Z,100700.09
2023-04-04T20:22:52.952Z,100700.16
2023-04-04T20:26:40.739Z,100702.16
2023-04-04T20:30:08.024Z,100703.27
2023-04-04T20:33:34.003Z,100701.61
2023-04-04T20:37:08.290Z,100704.29
2023-04-04T20:40:45.524Z,100705.74
2023-04-04T20:44:24.621Z,100707.91
2023-04-04T20:47:51.550Z,100708.33
2023-04-04T20:51:35.180Z,100703.19
2023-04-04T20:55:04.325Z,100702.45
2023-04-04T20:58:32.709Z,100704.80
2023-04-04T21:02:12.405Z,100704.44
2023-04-04T21:05:36.675Z,100700.55
2023-04-04T21:09:17.171Z,100694.30
2023-04-04T21:12:50.303Z,100695.33
2023-04-04T21:16:13.464Z,100690.09
2023-04-04T21:23:57.679Z,100684.45
2023-04-04T21:27:38.057Z,100687.89
2023-04-04T21:31:22.753Z,100688.88
2023-04-04T21:35:00.610Z,100687.23
2023-04-04T21:38:50.860Z,100690.30
2023-04-04T21:42:27.712Z,100691.27
2023-04-04T21:45:51.915Z,100687.71
2023-04-04T21:49:18.862Z,100688.66
2023-04-04T21:52:52.500Z,100687.55
2023-04-04T21:56:19.158Z,100685.91
2023-04-04T21:59:47.883Z,100688.56
2023-04-04T22:03:14.948Z,100688.14
2023-04-04T22:07:04.911Z,100689.59
2023-04-04T22:10:38.451Z,100688.23
2023-04-04T22:14:14.922Z,100689.18
2023-04-04T22:17:40.862Z,100684.55
2023-04-04T22:21:07.802Z,100682.55
2023-04-04T22:24:41.730Z,100683.32
2023-04-04T22:28:13.005Z,100686.00
2023-04-04T22:35:42.584Z,100685.23
2023-04-04T22:39:09.867Z,100685.33
2023-04-04T22:42:48.068Z,100682.80
2023-04-04T22:46:09.918Z,100680.78
2023-04-04T22:49:41.664Z,100678.44
2023-04-04T22:53:15.787Z,100680.27
2023-04-04T22:56:44.305Z,100681.87
2023-04-04T23:00:19.761Z,100680.05
2023-04-04T23:03:45.184Z,100676.33
2023-04-04T23:07:07.207Z,100673.08
2023-04-04T23:10:30.850Z,100672.45
2023-04-04T23:13:54.101Z,100668.04
2023-04-04T23:17:18.293Z,100667.60
2023-04-04T23:20:55.365Z,100666.64
2023-04-04T23:24:39.130Z,100660.15
2023-04-04T23:28:05.786Z,100658.14
2023-04-04T23:31:32.477Z,100654.92
2023-04-04T23:34:54.428Z,100652.44
2023-04-04T23:38:18.376Z,100651.51
2023-04-04T23:41:43.232Z,100644.29
2023-04-04T23:45:08.242Z,100639.20
2023-04-04T23:48:35.497Z,100640.33
2023-04-04T23:52:03.335Z,100637.67
2023-04-04T23:55:28.260Z,100637.23
2023-04-04T23:59:02.497Z,100636.25
